sensor_id;sensor_type;location;lat;lon;timestamp;P1;durP1;ratioP1;P2;durP2;ratioP2
74328;SDS011;62745;51.060;13.786;2023-02-19T00:02:25;4.97;;;2.40;;
74328;SDS011;62745;51.060;13.786;2023-02-19T00:04:50;7.37;;;2.00;;
74328;SDS011;62745;51.060;13.786;2023-02-19T00:07:16;6.90;;;2.33;;
74328;SDS011;62745;51.060;13.786;2023-02-19T00:09:41;6.53;;;2.33;;
74328;SDS011;62745;51.060;13.786;2023-02-19T00:12:06;5.37;;;2.03;;
74328;SDS011;62745;51.060;13.786;2023-02-19T00:14:31;5.10;;;2.30;;
74328;SDS011;62745;51.060;13.786;2023-02-19T00:16:57;6.10;;;2.30;;
74328;SDS011;62745;51.060;13.786;2023-02-19T00:19:22;5.97;;;2.40;;
74328;SDS011;62745;51.060;13.786;2023-02-19T00:21:51;5.95;;;2.53;;
74328;SDS011;62745;51.060;13.786;2023-02-19T00:24:16;6.22;;;2.55;;
74328;SDS011;62745;51.060;13.786;2023-02-19T00:26:43;4.40;;;2.25;;
74328;SDS011;62745;51.060;13.786;2023-02-19T00:29:13;5.68;;;2.50;;
74328;SDS011;62745;51.060;13.786;2023-02-19T00:31:40;4.82;;;2.10;;
74328;SDS011;62745;51.060;13.786;2023-02-19T00:34:06;5.15;;;2.10;;
74328;SDS011;62745;51.060;13.786;2023-02-19T00:36:33;4.78;;;2.03;;
74328;SDS011;62745;51.060;13.786;2023-02-19T00:39:02;5.35;;;1.77;;
74328;SDS011;62745;51.060;13.786;2023-02-19T00:41:28;3.50;;;1.65;;
74328;SDS011;62745;51.060;13.786;2023-02-19T00:43:58;5.65;;;1.95;;
74328;SDS011;62745;51.060;13.786;2023-02-19T00:46:25;4.55;;;2.08;;
74328;SDS011;62745;51.060;13.786;2023-02-19T00:49:01;4.25;;;2.00;;
74328;SDS011;62745;51.060;13.786;2023-02-19T00:51:29;5.50;;;2.30;;
74328;SDS011;62745;51.060;13.786;2023-02-19T00:53:56;4.25;;;1.75;;
74328;SDS011;62745;51.060;13.786;2023-02-19T00:56:21;4.97;;;1.92;;
74328;SDS011;62745;51.060;13.786;2023-02-19T00:58:46;3.80;;;1.83;;
74328;SDS011;62745;51.060;13.786;2023-02-19T01:01:13;5.28;;;2.05;;
74328;SDS011;62745;51.060;13.786;2023-02-19T01:03:39;5.03;;;2.08;;
74328;SDS011;62745;51.060;13.786;2023-02-19T01:06:05;4.63;;;1.80;;
74328;SDS011;62745;51.060;13.786;2023-02-19T01:08:32;6.07;;;2.10;;
74328;SDS011;62745;51.060;13.786;2023-02-19T01:10:58;6.90;;;2.42;;
74328;SDS011;62745;51.060;13.786;2023-02-19T01:13:24;6.82;;;2.08;;
74328;SDS011;62745;51.060;13.786;2023-02-19T01:15:50;7.40;;;2.30;;
74328;SDS011;62745;51.060;13.786;2023-02-19T01:18:15;4.03;;;1.70;;
74328;SDS011;62745;51.060;13.786;2023-02-19T01:20:41;5.22;;;1.95;;
74328;SDS011;62745;51.060;13.786;2023-02-19T01:23:08;6.47;;;1.75;;
74328;SDS011;62745;51.060;13.786;2023-02-19T01:25:39;5.28;;;1.77;;
74328;SDS011;62745;51.060;13.786;2023-02-19T01:28:06;5.20;;;1.80;;
74328;SDS011;62745;51.060;13.786;2023-02-19T01:30:35;4.43;;;2.13;;
74328;SDS011;62745;51.060;13.786;2023-02-19T01:33:05;4.15;;;1.85;;
74328;SDS011;62745;51.060;13.786;2023-02-19T01:35:32;5.20;;;2.00;;
74328;SDS011;62745;51.060;13.786;2023-02-19T01:37:57;5.50;;;1.92;;
74328;SDS011;62745;51.060;13.786;2023-02-19T01:40:23;4.90;;;1.97;;
74328;SDS011;62745;51.060;13.786;2023-02-19T01:42:49;5.13;;;1.60;;
74328;SDS011;62745;51.060;13.786;2023-02-19T01:45:16;4.40;;;2.23;;
74328;SDS011;62745;51.060;13.786;2023-02-19T01:47:49;6.18;;;1.95;;
74328;SDS011;62745;51.060;13.786;2023-02-19T01:50:18;4.80;;;1.85;;
74328;SDS011;62745;51.060;13.786;2023-02-19T01:52:44;3.97;;;1.58;;
74328;SDS011;62745;51.060;13.786;2023-02-19T01:55:10;5.32;;;1.77;;
74328;SDS011;62745;51.060;13.786;2023-02-19T01:57:38;5.10;;;2.03;;
74328;SDS011;62745;51.060;13.786;2023-02-19T02:00:10;4.97;;;1.83;;
74328;SDS011;62745;51.060;13.786;2023-02-19T02:02:38;4.05;;;1.88;;
74328;SDS011;62745;51.060;13.786;2023-02-19T02:05:06;7.13;;;1.80;;
74328;SDS011;62745;51.060;13.786;2023-02-19T02:07:37;6.85;;;1.98;;
74328;SDS011;62745;51.060;13.786;2023-02-19T02:10:20;6.05;;;2.35;;
74328;SDS011;62745;51.060;13.786;2023-02-19T02:12:46;4.67;;;1.83;;
74328;SDS011;62745;51.060;13.786;2023-02-19T02:15:12;4.40;;;2.10;;
74328;SDS011;62745;51.060;13.786;2023-02-19T02:23:08;4.03;;;1.80;;
74328;SDS011;62745;51.060;13.786;2023-02-19T02:31:34;4.07;;;1.63;;
74328;SDS011;62745;51.060;13.786;2023-02-19T02:34:15;3.78;;;1.58;;
74328;SDS011;62745;51.060;13.786;2023-02-19T02:36:46;4.35;;;1.60;;
74328;SDS011;62745;51.060;13.786;2023-02-19T02:39:17;3.72;;;1.50;;
74328;SDS011;62745;51.060;13.786;2023-02-19T02:41:49;3.92;;;1.60;;
74328;SDS011;62745;51.060;13.786;2023-02-19T02:44:39;5.50;;;1.70;;
74328;SDS011;62745;51.060;13.786;2023-02-19T02:47:05;4.18;;;1.40;;
74328;SDS011;62745;51.060;13.786;2023-02-19T02:49:51;4.80;;;1.70;;
74328;SDS011;62745;51.060;13.786;2023-02-19T02:52:28;3.70;;;1.52;;
74328;SDS011;62745;51.060;13.786;2023-02-19T02:55:13;3.70;;;1.70;;
74328;SDS011;62745;51.060;13.786;2023-02-19T02:57:39;3.05;;;1.35;;
74328;SDS011;62745;51.060;13.786;2023-02-19T03:00:05;2.72;;;1.10;;
74328;SDS011;62745;51.060;13.786;2023-02-19T03:02:31;2.78;;;1.20;;
74328;SDS011;62745;51.060;13.786;2023-02-19T03:05:04;3.67;;;1.45;;
74328;SDS011;62745;51.060;13.786;2023-02-19T03:10:40;4.03;;;1.40;;
74328;SDS011;62745;51.060;13.786;2023-02-19T03:13:15;2.90;;;1.30;;
74328;SDS011;62745;51.060;13.786;2023-02-19T03:16:05;2.97;;;1.30;;
74328;SDS011;62745;51.060;13.786;2023-02-19T03:18:53;3.50;;;1.40;;
74328;SDS011;62745;51.060;13.786;2023-02-19T03:21:41;3.58;;;1.20;;
74328;SDS011;62745;51.060;13.786;2023-02-19T03:24:09;2.38;;;1.02;;
74328;SDS011;62745;51.060;13.786;2023-02-19T03:26:55;2.08;;;1.00;;
74328;SDS011;62745;51.060;13.786;2023-02-19T03:29:23;4.93;;;0.95;;
74328;SDS011;62745;51.060;13.786;2023-02-19T03:31:56;2.45;;;1.10;;
74328;SDS011;62745;51.060;13.786;2023-02-19T03:34:25;2.13;;;0.90;;
74328;SDS011;62745;51.060;13.786;2023-02-19T03:37:00;1.73;;;0.75;;
74328;SDS011;62745;51.060;13.786;2023-02-19T03:39:39;2.10;;;0.80;;
74328;SDS011;62745;51.060;13.786;2023-02-19T03:47:40;3.38;;;1.25;;
74328;SDS011;62745;51.060;13.786;2023-02-19T03:50:23;2.72;;;1.13;;
74328;SDS011;62745;51.060;13.786;2023-02-19T03:55:25;1.80;;;0.80;;
74328;SDS011;62745;51.060;13.786;2023-02-19T03:58:11;3.78;;;1.23;;
74328;SDS011;62745;51.060;13.786;2023-02-19T04:00:45;3.47;;;1.02;;
74328;SDS011;62745;51.060;13.786;2023-02-19T04:03:19;2.75;;;1.33;;
74328;SDS011;62745;51.060;13.786;2023-02-19T04:05:57;3.05;;;1.30;;
74328;SDS011;62745;51.060;13.786;2023-02-19T04:08:25;3.10;;;1.25;;
74328;SDS011;62745;51.060;13.786;2023-02-19T04:10:53;3.72;;;1.20;;
74328;SDS011;62745;51.060;13.786;2023-02-19T04:13:26;2.90;;;1.10;;
74328;SDS011;62745;51.060;13.786;2023-02-19T04:15:56;2.85;;;0.90;;
74328;SDS011;62745;51.060;13.786;2023-02-19T04:18:31;1.75;;;0.90;;
74328;SDS011;62745;51.060;13.786;2023-02-19T04:21:02;2.33;;;1.10;;
74328;SDS011;62745;51.060;13.786;2023-02-19T04:23:29;2.90;;;1.30;;
74328;SDS011;62745;51.060;13.786;2023-02-19T04:26:00;3.58;;;0.90;;
74328;SDS011;62745;51.060;13.786;2023-02-19T04:28:28;2.10;;;0.85;;
74328;SDS011;62745;51.060;13.786;2023-02-19T04:30:53;1.67;;;0.90;;
74328;SDS011;62745;51.060;13.786;2023-02-19T04:33:19;1.80;;;0.90;;
74328;SDS011;62745;51.060;13.786;2023-02-19T04:35:44;1.27;;;0.70;;
74328;SDS011;62745;51.060;13.786;2023-02-19T04:38:09;2.23;;;0.90;;
74328;SDS011;62745;51.060;13.786;2023-02-19T04:40:36;2.47;;;0.70;;
74328;SDS011;62745;51.060;13.786;2023-02-19T04:43:01;1.13;;;0.77;;
74328;SDS011;62745;51.060;13.786;2023-02-19T04:45:26;2.13;;;0.88;;
74328;SDS011;62745;51.060;13.786;2023-02-19T04:47:52;1.60;;;0.70;;
74328;SDS011;62745;51.060;13.786;2023-02-19T04:50:17;2.00;;;0.70;;
74328;SDS011;62745;51.060;13.786;2023-02-19T04:52:42;1.67;;;0.57;;
74328;SDS011;62745;51.060;13.786;2023-02-19T04:55:08;1.52;;;0.80;;
74328;SDS011;62745;51.060;13.786;2023-02-19T04:57:33;1.17;;;0.65;;
74328;SDS011;62745;51.060;13.786;2023-02-19T04:59:59;2.63;;;1.10;;
74328;SDS011;62745;51.060;13.786;2023-02-19T05:02:25;2.30;;;0.70;;
74328;SDS011;62745;51.060;13.786;2023-02-19T05:04:50;2.07;;;0.70;;
74328;SDS011;62745;51.060;13.786;2023-02-19T05:07:15;1.60;;;0.80;;
74328;SDS011;62745;51.060;13.786;2023-02-19T05:09:41;0.90;;;0.70;;
74328;SDS011;62745;51.060;13.786;2023-02-19T05:12:06;2.00;;;0.90;;
74328;SDS011;62745;51.060;13.786;2023-02-19T05:14:31;2.10;;;0.77;;
74328;SDS011;62745;51.060;13.786;2023-02-19T05:16:56;1.07;;;0.70;;
74328;SDS011;62745;51.060;13.786;2023-02-19T05:19:22;2.03;;;0.88;;
74328;SDS011;62745;51.060;13.786;2023-02-19T05:21:47;2.80;;;0.90;;
74328;SDS011;62745;51.060;13.786;2023-02-19T05:24:12;1.53;;;0.70;;
74328;SDS011;62745;51.060;13.786;2023-02-19T05:26:38;2.33;;;0.60;;
74328;SDS011;62745;51.060;13.786;2023-02-19T05:29:03;1.87;;;0.80;;
74328;SDS011;62745;51.060;13.786;2023-02-19T05:31:28;1.60;;;0.75;;
74328;SDS011;62745;51.060;13.786;2023-02-19T05:33:54;1.53;;;0.80;;
74328;SDS011;62745;51.060;13.786;2023-02-19T05:36:20;1.50;;;0.90;;
74328;SDS011;62745;51.060;13.786;2023-02-19T05:38:46;1.85;;;0.70;;
74328;SDS011;62745;51.060;13.786;2023-02-19T05:41:19;2.28;;;0.90;;
74328;SDS011;62745;51.060;13.786;2023-02-19T05:43:46;1.05;;;0.70;;
74328;SDS011;62745;51.060;13.786;2023-02-19T05:46:13;2.35;;;0.98;;
74328;SDS011;62745;51.060;13.786;2023-02-19T05:48:40;1.88;;;0.90;;
74328;SDS011;62745;51.060;13.786;2023-02-19T05:51:08;1.55;;;0.70;;
74328;SDS011;62745;51.060;13.786;2023-02-19T05:53:37;2.47;;;1.10;;
74328;SDS011;62745;51.060;13.786;2023-02-19T05:56:03;2.55;;;0.80;;
74328;SDS011;62745;51.060;13.786;2023-02-19T05:58:29;2.97;;;0.93;;
74328;SDS011;62745;51.060;13.786;2023-02-19T06:00:54;1.60;;;0.70;;
74328;SDS011;62745;51.060;13.786;2023-02-19T06:03:20;2.70;;;0.82;;
74328;SDS011;62745;51.060;13.786;2023-02-19T06:05:46;0.73;;;0.60;;
74328;SDS011;62745;51.060;13.786;2023-02-19T06:08:12;2.97;;;0.70;;
74328;SDS011;62745;51.060;13.786;2023-02-19T06:10:38;1.65;;;0.70;;
74328;SDS011;62745;51.060;13.786;2023-02-19T06:13:05;0.95;;;0.50;;
74328;SDS011;62745;51.060;13.786;2023-02-19T06:15:31;1.52;;;0.68;;
74328;SDS011;62745;51.060;13.786;2023-02-19T06:17:56;1.13;;;0.70;;
74328;SDS011;62745;51.060;13.786;2023-02-19T06:20:21;1.00;;;0.60;;
74328;SDS011;62745;51.060;13.786;2023-02-19T06:22:50;1.10;;;0.50;;
74328;SDS011;62745;51.060;13.786;2023-02-19T06:25:16;0.82;;;0.60;;
74328;SDS011;62745;51.060;13.786;2023-02-19T06:27:44;2.80;;;0.68;;
74328;SDS011;62745;51.060;13.786;2023-02-19T06:30:09;1.57;;;0.70;;
74328;SDS011;62745;51.060;13.786;2023-02-19T06:32:35;1.83;;;0.70;;
74328;SDS011;62745;51.060;13.786;2023-02-19T06:35:01;0.85;;;0.60;;
74328;SDS011;62745;51.060;13.786;2023-02-19T06:37:26;1.33;;;0.60;;
74328;SDS011;62745;51.060;13.786;2023-02-19T06:39:51;1.15;;;0.63;;
74328;SDS011;62745;51.060;13.786;2023-02-19T06:42:16;0.93;;;0.60;;
74328;SDS011;62745;51.060;13.786;2023-02-19T06:44:42;2.50;;;1.13;;
74328;SDS011;62745;51.060;13.786;2023-02-19T06:47:07;1.37;;;0.73;;
74328;SDS011;62745;51.060;13.786;2023-02-19T06:49:32;2.23;;;1.20;;
74328;SDS011;62745;51.060;13.786;2023-02-19T06:51:57;1.93;;;0.70;;
74328;SDS011;62745;51.060;13.786;2023-02-19T06:54:24;2.47;;;0.88;;
74328;SDS011;62745;51.060;13.786;2023-02-19T06:56:50;1.88;;;0.90;;
74328;SDS011;62745;51.060;13.786;2023-02-19T06:59:15;1.25;;;0.70;;
74328;SDS011;62745;51.060;13.786;2023-02-19T07:01:44;1.83;;;0.90;;
74328;SDS011;62745;51.060;13.786;2023-02-19T07:04:09;2.08;;;0.93;;
74328;SDS011;62745;51.060;13.786;2023-02-19T07:06:35;2.13;;;1.00;;
74328;SDS011;62745;51.060;13.786;2023-02-19T07:09:02;3.00;;;1.15;;
74328;SDS011;62745;51.060;13.786;2023-02-19T07:11:29;2.38;;;1.02;;
74328;SDS011;62745;51.060;13.786;2023-02-19T07:13:57;2.70;;;1.13;;
74328;SDS011;62745;51.060;13.786;2023-02-19T07:16:23;3.00;;;1.13;;
74328;SDS011;62745;51.060;13.786;2023-02-19T07:18:49;2.58;;;0.90;;
74328;SDS011;62745;51.060;13.786;2023-02-19T07:21:15;2.15;;;1.00;;
74328;SDS011;62745;51.060;13.786;2023-02-19T07:23:42;2.72;;;1.30;;
74328;SDS011;62745;51.060;13.786;2023-02-19T07:26:12;5.68;;;1.45;;
74328;SDS011;62745;51.060;13.786;2023-02-19T07:28:40;2.58;;;1.27;;
74328;SDS011;62745;51.060;13.786;2023-02-19T07:31:09;1.85;;;0.95;;
74328;SDS011;62745;51.060;13.786;2023-02-19T07:33:35;2.67;;;1.20;;
74328;SDS011;62745;51.060;13.786;2023-02-19T07:36:00;2.22;;;1.02;;
74328;SDS011;62745;51.060;13.786;2023-02-19T07:38:26;1.73;;;0.90;;
74328;SDS011;62745;51.060;13.786;2023-02-19T07:40:52;1.80;;;0.90;;
74328;SDS011;62745;51.060;13.786;2023-02-19T07:43:25;1.63;;;0.88;;
74328;SDS011;62745;51.060;13.786;2023-02-19T07:45:52;1.38;;;0.80;;
74328;SDS011;62745;51.060;13.786;2023-02-19T07:48:18;2.75;;;1.33;;
74328;SDS011;62745;51.060;13.786;2023-02-19T07:50:53;2.38;;;0.90;;
74328;SDS011;62745;51.060;13.786;2023-02-19T07:53:21;3.28;;;0.80;;
74328;SDS011;62745;51.060;13.786;2023-02-19T07:55:47;1.70;;;0.80;;
74328;SDS011;62745;51.060;13.786;2023-02-19T07:58:12;3.27;;;1.23;;
74328;SDS011;62745;51.060;13.786;2023-02-19T08:00:38;2.47;;;1.15;;
74328;SDS011;62745;51.060;13.786;2023-02-19T08:03:04;2.42;;;1.00;;
74328;SDS011;62745;51.060;13.786;2023-02-19T08:05:30;1.25;;;0.70;;
74328;SDS011;62745;51.060;13.786;2023-02-19T08:07:57;1.00;;;0.60;;
74328;SDS011;62745;51.060;13.786;2023-02-19T08:10:24;0.80;;;0.60;;
74328;SDS011;62745;51.060;13.786;2023-02-19T08:13:13;1.13;;;0.55;;
74328;SDS011;62745;51.060;13.786;2023-02-19T08:15:52;1.50;;;0.75;;
74328;SDS011;62745;51.060;13.786;2023-02-19T08:18:41;0.57;;;0.50;;
74328;SDS011;62745;51.060;13.786;2023-02-19T08:21:07;1.27;;;0.60;;
74328;SDS011;62745;51.060;13.786;2023-02-19T08:23:32;1.07;;;0.77;;
74328;SDS011;62745;51.060;13.786;2023-02-19T08:25:58;1.45;;;0.50;;
74328;SDS011;62745;51.060;13.786;2023-02-19T08:28:24;1.02;;;0.80;;
74328;SDS011;62745;51.060;13.786;2023-02-19T08:30:51;1.60;;;0.70;;
74328;SDS011;62745;51.060;13.786;2023-02-19T08:33:17;0.93;;;0.60;;
74328;SDS011;62745;51.060;13.786;2023-02-19T08:35:44;1.95;;;0.98;;
74328;SDS011;62745;51.060;13.786;2023-02-19T08:38:10;0.70;;;0.60;;
74328;SDS011;62745;51.060;13.786;2023-02-19T08:40:37;1.25;;;0.75;;
74328;SDS011;62745;51.060;13.786;2023-02-19T08:43:04;1.15;;;0.50;;
74328;SDS011;62745;51.060;13.786;2023-02-19T08:45:30;1.70;;;0.70;;
74328;SDS011;62745;51.060;13.786;2023-02-19T08:47:56;1.48;;;0.90;;
74328;SDS011;62745;51.060;13.786;2023-02-19T08:50:22;1.52;;;0.75;;
74328;SDS011;62745;51.060;13.786;2023-02-19T08:52:48;1.80;;;0.70;;
74328;SDS011;62745;51.060;13.786;2023-02-19T08:55:13;1.13;;;0.57;;
74328;SDS011;62745;51.060;13.786;2023-02-19T08:57:39;1.77;;;0.75;;
74328;SDS011;62745;51.060;13.786;2023-02-19T09:00:05;2.93;;;1.10;;
74328;SDS011;62745;51.060;13.786;2023-02-19T09:02:31;1.80;;;0.80;;
74328;SDS011;62745;51.060;13.786;2023-02-19T09:04:56;1.92;;;1.00;;
74328;SDS011;62745;51.060;13.786;2023-02-19T09:07:21;1.67;;;0.83;;
74328;SDS011;62745;51.060;13.786;2023-02-19T09:09:47;1.65;;;0.80;;
74328;SDS011;62745;51.060;13.786;2023-02-19T09:12:12;2.38;;;0.90;;
74328;SDS011;62745;51.060;13.786;2023-02-19T09:14:37;2.00;;;1.10;;
74328;SDS011;62745;51.060;13.786;2023-02-19T09:17:04;1.75;;;0.77;;
74328;SDS011;62745;51.060;13.786;2023-02-19T09:19:31;2.05;;;0.80;;
74328;SDS011;62745;51.060;13.786;2023-02-19T09:21:56;1.70;;;0.90;;
74328;SDS011;62745;51.060;13.786;2023-02-19T09:24:22;1.80;;;0.85;;
74328;SDS011;62745;51.060;13.786;2023-02-19T09:26:48;1.75;;;0.73;;
74328;SDS011;62745;51.060;13.786;2023-02-19T09:29:14;1.73;;;0.77;;
74328;SDS011;62745;51.060;13.786;2023-02-19T09:31:40;2.53;;;0.80;;
74328;SDS011;62745;51.060;13.786;2023-02-19T09:34:05;2.83;;;0.88;;
74328;SDS011;62745;51.060;13.786;2023-02-19T09:36:30;1.95;;;0.80;;
74328;SDS011;62745;51.060;13.786;2023-02-19T09:38:57;4.07;;;0.80;;
74328;SDS011;62745;51.060;13.786;2023-02-19T09:41:26;1.10;;;0.57;;
74328;SDS011;62745;51.060;13.786;2023-02-19T09:43:55;1.20;;;0.60;;
74328;SDS011;62745;51.060;13.786;2023-02-19T09:48:52;1.63;;;0.75;;
74328;SDS011;62745;51.060;13.786;2023-02-19T09:51:21;1.17;;;0.52;;
74328;SDS011;62745;51.060;13.786;2023-02-19T09:53:49;1.63;;;0.60;;
74328;SDS011;62745;51.060;13.786;2023-02-19T09:56:16;1.73;;;0.60;;
74328;SDS011;62745;51.060;13.786;2023-02-19T09:58:49;1.90;;;0.70;;
74328;SDS011;62745;51.060;13.786;2023-02-19T10:01:18;1.92;;;0.68;;
74328;SDS011;62745;51.060;13.786;2023-02-19T10:03:45;2.15;;;0.70;;
74328;SDS011;62745;51.060;13.786;2023-02-19T10:06:19;2.17;;;0.90;;
74328;SDS011;62745;51.060;13.786;2023-02-19T10:08:48;2.65;;;0.80;;
74328;SDS011;62745;51.060;13.786;2023-02-19T10:11:19;1.35;;;0.80;;
74328;SDS011;62745;51.060;13.786;2023-02-19T10:13:48;2.00;;;1.00;;
74328;SDS011;62745;51.060;13.786;2023-02-19T10:16:23;1.58;;;0.80;;
74328;SDS011;62745;51.060;13.786;2023-02-19T10:18:50;1.10;;;0.70;;
74328;SDS011;62745;51.060;13.786;2023-02-19T10:21:17;2.17;;;0.75;;
74328;SDS011;62745;51.060;13.786;2023-02-19T10:23:44;1.83;;;0.82;;
74328;SDS011;62745;51.060;13.786;2023-02-19T10:26:13;1.98;;;0.95;;
74328;SDS011;62745;51.060;13.786;2023-02-19T10:28:38;3.75;;;0.93;;
74328;SDS011;62745;51.060;13.786;2023-02-19T10:31:04;3.10;;;1.07;;
74328;SDS011;62745;51.060;13.786;2023-02-19T10:33:51;4.20;;;0.82;;
74328;SDS011;62745;51.060;13.786;2023-02-19T10:36:23;2.40;;;1.10;;
74328;SDS011;62745;51.060;13.786;2023-02-19T10:38:52;2.33;;;1.00;;
74328;SDS011;62745;51.060;13.786;2023-02-19T10:41:19;2.25;;;0.98;;
74328;SDS011;62745;51.060;13.786;2023-02-19T10:43:54;2.20;;;0.90;;
74328;SDS011;62745;51.060;13.786;2023-02-19T10:46:26;2.13;;;0.95;;
74328;SDS011;62745;51.060;13.786;2023-02-19T10:49:03;2.35;;;1.10;;
74328;SDS011;62745;51.060;13.786;2023-02-19T10:51:31;3.75;;;1.10;;
74328;SDS011;62745;51.060;13.786;2023-02-19T10:54:04;4.68;;;1.30;;
74328;SDS011;62745;51.060;13.786;2023-02-19T10:56:43;3.53;;;1.42;;
74328;SDS011;62745;51.060;13.786;2023-02-19T10:59:25;1.67;;;0.85;;
74328;SDS011;62745;51.060;13.786;2023-02-19T11:01:53;2.30;;;1.17;;
74328;SDS011;62745;51.060;13.786;2023-02-19T11:04:19;3.55;;;1.00;;
74328;SDS011;62745;51.060;13.786;2023-02-19T11:06:45;1.70;;;0.97;;
74328;SDS011;62745;51.060;13.786;2023-02-19T11:09:27;3.03;;;1.38;;
74328;SDS011;62745;51.060;13.786;2023-02-19T11:11:58;3.30;;;1.20;;
74328;SDS011;62745;51.060;13.786;2023-02-19T11:14:23;4.00;;;1.20;;
74328;SDS011;62745;51.060;13.786;2023-02-19T11:16:51;2.60;;;1.30;;
74328;SDS011;62745;51.060;13.786;2023-02-19T11:19:24;2.42;;;1.08;;
74328;SDS011;62745;51.060;13.786;2023-02-19T11:21:53;2.45;;;1.30;;
74328;SDS011;62745;51.060;13.786;2023-02-19T11:24:24;2.42;;;1.05;;
74328;SDS011;62745;51.060;13.786;2023-02-19T11:26:55;3.42;;;1.10;;
74328;SDS011;62745;51.060;13.786;2023-02-19T11:29:22;2.70;;;1.30;;
74328;SDS011;62745;51.060;13.786;2023-02-19T11:31:49;2.40;;;0.90;;
74328;SDS011;62745;51.060;13.786;2023-02-19T11:37:06;1.63;;;0.77;;
74328;SDS011;62745;51.060;13.786;2023-02-19T11:39:33;1.42;;;0.80;;
74328;SDS011;62745;51.060;13.786;2023-02-19T11:44:57;3.95;;;1.00;;
74328;SDS011;62745;51.060;13.786;2023-02-19T11:50:44;2.42;;;1.00;;
74328;SDS011;62745;51.060;13.786;2023-02-19T11:53:31;3.08;;;0.80;;
74328;SDS011;62745;51.060;13.786;2023-02-19T12:01:36;4.43;;;1.13;;
74328;SDS011;62745;51.060;13.786;2023-02-19T12:04:36;3.63;;;1.05;;
74328;SDS011;62745;51.060;13.786;2023-02-19T12:10:25;2.28;;;0.98;;
74328;SDS011;62745;51.060;13.786;2023-02-19T12:13:06;3.67;;;1.10;;
74328;SDS011;62745;51.060;13.786;2023-02-19T12:16:04;3.00;;;1.00;;
74328;SDS011;62745;51.060;13.786;2023-02-19T12:24:02;3.72;;;1.20;;
74328;SDS011;62745;51.060;13.786;2023-02-19T12:32:40;3.92;;;1.17;;
74328;SDS011;62745;51.060;13.786;2023-02-19T12:35:09;4.40;;;1.42;;
74328;SDS011;62745;51.060;13.786;2023-02-19T12:40:37;2.25;;;1.00;;
74328;SDS011;62745;51.060;13.786;2023-02-19T12:43:14;5.43;;;1.25;;
74328;SDS011;62745;51.060;13.786;2023-02-19T12:45:56;3.90;;;1.48;;
74328;SDS011;62745;51.060;13.786;2023-02-19T12:48:33;3.42;;;1.13;;
74328;SDS011;62745;51.060;13.786;2023-02-19T12:51:14;3.63;;;1.05;;
74328;SDS011;62745;51.060;13.786;2023-02-19T12:53:46;3.03;;;1.30;;
74328;SDS011;62745;51.060;13.786;2023-02-19T12:56:26;5.35;;;1.48;;
74328;SDS011;62745;51.060;13.786;2023-02-19T12:58:59;3.40;;;1.30;;
74328;SDS011;62745;51.060;13.786;2023-02-19T13:01:30;4.60;;;1.20;;
74328;SDS011;62745;51.060;13.786;2023-02-19T13:09:35;4.32;;;1.30;;
74328;SDS011;62745;51.060;13.786;2023-02-19T13:12:13;3.47;;;1.40;;
74328;SDS011;62745;51.060;13.786;2023-02-19T13:14:43;3.47;;;1.23;;
74328;SDS011;62745;51.060;13.786;2023-02-19T13:17:20;3.80;;;1.13;;
74328;SDS011;62745;51.060;13.786;2023-02-19T13:19:51;4.72;;;1.20;;
74328;SDS011;62745;51.060;13.786;2023-02-19T13:22:44;3.38;;;1.45;;
74328;SDS011;62745;51.060;13.786;2023-02-19T13:25:40;4.85;;;1.08;;
74328;SDS011;62745;51.060;13.786;2023-02-19T13:28:24;5.25;;;2.45;;
74328;SDS011;62745;51.060;13.786;2023-02-19T13:34:01;2.83;;;1.30;;
74328;SDS011;62745;51.060;13.786;2023-02-19T13:36:39;5.93;;;1.30;;
74328;SDS011;62745;51.060;13.786;2023-02-19T13:39:05;2.67;;;0.80;;
74328;SDS011;62745;51.060;13.786;2023-02-19T13:44:26;2.30;;;0.93;;
74328;SDS011;62745;51.060;13.786;2023-02-19T13:46:55;2.20;;;0.80;;
74328;SDS011;62745;51.060;13.786;2023-02-19T13:49:32;2.72;;;0.90;;
74328;SDS011;62745;51.060;13.786;2023-02-19T13:54:51;2.15;;;0.90;;
74328;SDS011;62745;51.060;13.786;2023-02-19T13:58:33;2.90;;;0.80;;
74328;SDS011;62745;51.060;13.786;2023-02-19T14:00:56;4.18;;;1.40;;
74328;SDS011;62745;51.060;13.786;2023-02-19T14:03:38;2.67;;;1.00;;
74328;SDS011;62745;51.060;13.786;2023-02-19T14:06:10;3.03;;;1.27;;
74328;SDS011;62745;51.060;13.786;2023-02-19T14:08:53;4.28;;;0.90;;
74328;SDS011;62745;51.060;13.786;2023-02-19T14:19:12;5.40;;;1.13;;
74328;SDS011;62745;51.060;13.786;2023-02-19T14:21:38;4.18;;;0.93;;
74328;SDS011;62745;51.060;13.786;2023-02-19T14:24:07;3.55;;;1.00;;
74328;SDS011;62745;51.060;13.786;2023-02-19T14:26:36;2.95;;;0.98;;
74328;SDS011;62745;51.060;13.786;2023-02-19T14:29:02;4.70;;;1.08;;
74328;SDS011;62745;51.060;13.786;2023-02-19T14:31:37;3.80;;;0.95;;
74328;SDS011;62745;51.060;13.786;2023-02-19T14:34:04;3.53;;;0.93;;
74328;SDS011;62745;51.060;13.786;2023-02-19T14:36:45;2.08;;;0.63;;
74328;SDS011;62745;51.060;13.786;2023-02-19T14:39:19;3.80;;;0.95;;
74328;SDS011;62745;51.060;13.786;2023-02-19T14:41:49;2.22;;;1.02;;
74328;SDS011;62745;51.060;13.786;2023-02-19T14:44:20;2.85;;;1.10;;
74328;SDS011;62745;51.060;13.786;2023-02-19T14:51:51;2.53;;;1.10;;
74328;SDS011;62745;51.060;13.786;2023-02-19T14:54:32;2.05;;;0.90;;
74328;SDS011;62745;51.060;13.786;2023-02-19T14:57:05;2.70;;;1.20;;
74328;SDS011;62745;51.060;13.786;2023-02-19T14:59:37;3.17;;;1.10;;
74328;SDS011;62745;51.060;13.786;2023-02-19T15:02:12;2.03;;;0.90;;
74328;SDS011;62745;51.060;13.786;2023-02-19T15:04:41;2.58;;;1.10;;
74328;SDS011;62745;51.060;13.786;2023-02-19T15:07:07;1.70;;;1.00;;
74328;SDS011;62745;51.060;13.786;2023-02-19T15:09:36;3.97;;;1.20;;
74328;SDS011;62745;51.060;13.786;2023-02-19T15:12:05;2.72;;;1.10;;
74328;SDS011;62745;51.060;13.786;2023-02-19T15:14:31;2.55;;;1.20;;
74328;SDS011;62745;51.060;13.786;2023-02-19T15:17:01;3.78;;;1.35;;
74328;SDS011;62745;51.060;13.786;2023-02-19T15:19:30;3.15;;;1.13;;
74328;SDS011;62745;51.060;13.786;2023-02-19T15:21:59;5.75;;;1.20;;
74328;SDS011;62745;51.060;13.786;2023-02-19T15:24:25;3.80;;;1.40;;
74328;SDS011;62745;51.060;13.786;2023-02-19T15:26:52;3.75;;;1.17;;
74328;SDS011;62745;51.060;13.786;2023-02-19T15:29:23;5.03;;;1.00;;
74328;SDS011;62745;51.060;13.786;2023-02-19T15:31:51;3.83;;;1.30;;
74328;SDS011;62745;51.060;13.786;2023-02-19T15:34:19;1.75;;;1.02;;
74328;SDS011;62745;51.060;13.786;2023-02-19T15:36:48;3.28;;;1.15;;
74328;SDS011;62745;51.060;13.786;2023-02-19T15:39:16;2.67;;;0.90;;
74328;SDS011;62745;51.060;13.786;2023-02-19T15:41:48;4.47;;;1.20;;
74328;SDS011;62745;51.060;13.786;2023-02-19T15:47:03;3.75;;;1.08;;
74328;SDS011;62745;51.060;13.786;2023-02-19T15:49:39;3.85;;;1.00;;
74328;SDS011;62745;51.060;13.786;2023-02-19T15:52:11;5.57;;;1.10;;
74328;SDS011;62745;51.060;13.786;2023-02-19T15:54:54;1.88;;;1.10;;
74328;SDS011;62745;51.060;13.786;2023-02-19T15:57:27;4.82;;;1.13;;
74328;SDS011;62745;51.060;13.786;2023-02-19T16:00:14;2.88;;;1.00;;
74328;SDS011;62745;51.060;13.786;2023-02-19T16:05:12;4.43;;;1.40;;
74328;SDS011;62745;51.060;13.786;2023-02-19T16:07:41;3.47;;;1.30;;
74328;SDS011;62745;51.060;13.786;2023-02-19T16:10:18;5.22;;;1.30;;
74328;SDS011;62745;51.060;13.786;2023-02-19T16:12:59;5.50;;;1.60;;
74328;SDS011;62745;51.060;13.786;2023-02-19T16:15:29;4.47;;;1.63;;
74328;SDS011;62745;51.060;13.786;2023-02-19T16:17:55;4.35;;;1.35;;
74328;SDS011;62745;51.060;13.786;2023-02-19T16:20:26;3.60;;;1.50;;